TAF Text Data
IDs:
Format:
Raw Decoded Include METAR

Data at: 2208 UTC 15 Oct 2018

KCVS 152158Z AUTO 03010KT 10SM OVC060 04/M07 A3035 RMK AO2 SLP289 T00351068 $

TAF KCVS 151800Z 1518/1624 03012G18KT 9999 OVC050 QNH3035INS
  BECMG 1523/1524 04010KT 9999 OVC045 QNH3034INS
  BECMG 1602/1603 05006KT 9999 OVC040 QNH3035INS
  BECMG 1620/1621 08010KT 9999 OVC040 QNH3031INS TX04/1523Z TN01/1612Z